PWSweather.com
Personal Weather Stations
Station Observations

EmmenNL

Lat: 52.74388, Lon: 6.898477

Elevation: 49

Station Type: Davis Vantage Pro2 Plus

http://www.emmenzuidwest.nl

Latest ConditionsUpdated 2:47:08 AM GMT+01:01 Thursday, Jan 17, 2019
Currently Today's Max Today's Min Today's Average
Temperature 39.4°F4.1°C 41.4°F5.2°C 39.4°F4.1°C 40.2°F4.6°C
Dew Point 38.3°F3.5°C 40.3°F4.6°C 38.3°F3.5°C 39.1°F3.9°C
Winds 6.5 mph WSW10.5 kmh WSW 6.5 mph -10.5 kmh - - 4.3 mph 6.9 kmh
Wind Gusts 8.5 mph13.7 kmh 9.6 mph15.4 kmh - -
Humidity 96% 96% 95% 96%
Pressure 29.50 in999.0 mb 29.51 in999.3 mb 29.49 in998.6 mb -
Precipitation - 0.04 in1.0 mm - -
Hour Temp Dew Point Humidity Winds Wind Gusts Pressure Precip Precip Rate Daily Precip Total
02:47 AM 39.4°F4.1°C 38.3°F3.5°C 96% 6.5 mph WSW10.5 kmh WSW 8.5 mph13.7 kmh 29.50 in999.0 mb - 0.03 in0.8 mm 0.04 in1.0 mm
02:42 AM 39.6°F4.2°C 38.5°F3.6°C 96% 3.8 mph S6.1 kmh S 6.3 mph10.1 kmh 29.50 in999.0 mb - 0.03 in0.8 mm 0.04 in1.0 mm
02:37 AM 39.6°F4.2°C 38.5°F3.6°C 96% 4.7 mph SW7.6 kmh SW 6.3 mph10.1 kmh 29.50 in999.0 mb - 0.03 in0.8 mm 0.03 in0.8 mm
02:32 AM 39.6°F4.2°C 38.5°F3.6°C 96% 6.0 mph SW9.7 kmh SW 9.6 mph15.4 kmh 29.51 in999.3 mb - 0.00 in0.0 mm 0.03 in0.8 mm
02:27 AM 39.6°F4.2°C 38.5°F3.6°C 96% 4.5 mph SW7.2 kmh SW 4.3 mph6.9 kmh 29.50 in999.0 mb - 0.00 in0.0 mm 0.03 in0.8 mm
02:22 AM 39.6°F4.2°C 38.5°F3.6°C 96% 4.9 mph SW7.9 kmh SW 2.0 mph3.2 kmh 29.50 in999.0 mb - 0.00 in0.0 mm 0.03 in0.8 mm
02:17 AM 39.6°F4.2°C 38.5°F3.6°C 96% 4.5 mph SW7.2 kmh SW 7.4 mph11.9 kmh 29.50 in999.0 mb - 0.00 in0.0 mm 0.03 in0.8 mm
02:12 AM 39.6°F4.2°C 38.5°F3.6°C 96% 5.1 mph SSW8.2 kmh SSW 4.3 mph6.9 kmh 29.50 in999.0 mb - 0.00 in0.0 mm 0.03 in0.8 mm
02:07 AM 39.6°F4.2°C 38.5°F3.6°C 96% 4.7 mph SW7.6 kmh SW 5.4 mph8.7 kmh 29.50 in999.0 mb - 0.00 in0.0 mm 0.03 in0.8 mm
02:02 AM 39.7°F4.3°C 38.7°F3.7°C 96% 4.5 mph SW7.2 kmh SW 2.0 mph3.2 kmh 29.49 in998.6 mb - 0.00 in0.0 mm 0.03 in0.8 mm
01:57 AM 39.7°F4.3°C 38.7°F3.7°C 96% 4.3 mph SW6.9 kmh SW 3.1 mph5.0 kmh 29.49 in998.6 mb - 0.03 in0.8 mm 0.03 in0.8 mm
01:52 AM 39.7°F4.3°C 38.5°F3.6°C 95% 3.4 mph SW5.5 kmh SW 3.1 mph5.0 kmh 29.49 in998.6 mb - 0.03 in0.8 mm 0.03 in0.8 mm
01:47 AM 39.7°F4.3°C 38.5°F3.6°C 95% 3.6 mph WSW5.8 kmh WSW 3.1 mph5.0 kmh 29.49 in998.6 mb - 0.03 in0.8 mm 0.02 in0.5 mm
01:42 AM 39.7°F4.3°C 38.5°F3.6°C 95% 3.4 mph SW5.5 kmh SW 4.3 mph6.9 kmh 29.49 in998.6 mb - 0.00 in0.0 mm 0.02 in0.5 mm
01:37 AM 39.9°F4.4°C 38.7°F3.7°C 95% 3.4 mph SW5.5 kmh SW 3.1 mph5.0 kmh 29.49 in998.6 mb - 0.00 in0.0 mm 0.02 in0.5 mm
01:32 AM 39.9°F4.4°C 38.8°F3.8°C 96% 3.6 mph SSW5.8 kmh SSW 3.1 mph5.0 kmh 29.49 in998.6 mb - 0.00 in0.0 mm 0.02 in0.5 mm
01:27 AM 39.9°F4.4°C 38.8°F3.8°C 96% 3.6 mph SW5.8 kmh SW 4.3 mph6.9 kmh 29.49 in998.6 mb - 0.03 in0.8 mm 0.02 in0.5 mm
01:22 AM 39.9°F4.4°C 38.8°F3.8°C 96% 2.5 mph SSW4.0 kmh SSW 3.1 mph5.0 kmh 29.49 in998.6 mb - 0.03 in0.8 mm 0.02 in0.5 mm
01:17 AM 39.9°F4.4°C 38.8°F3.8°C 96% 3.6 mph WSW5.8 kmh WSW 3.1 mph5.0 kmh 29.49 in998.6 mb - 0.03 in0.8 mm 0.02 in0.5 mm
01:12 AM 40.1°F4.5°C 39.0°F3.9°C 96% 4.3 mph SSW6.9 kmh SSW 6.3 mph10.1 kmh 29.49 in998.6 mb - 0.00 in0.0 mm 0.02 in0.5 mm
01:07 AM 40.1°F4.5°C 39.0°F3.9°C 96% 2.0 mph SW3.2 kmh SW 1.1 mph1.8 kmh 29.50 in999.0 mb - 0.00 in0.0 mm 0.02 in0.5 mm
01:02 AM 40.1°F4.5°C 38.8°F3.8°C 95% 2.7 mph SW4.3 kmh SW 2.0 mph3.2 kmh 29.50 in999.0 mb - 0.00 in0.0 mm 0.02 in0.5 mm
12:57 AM 40.3°F4.6°C 39.0°F3.9°C 95% 4.3 mph W6.9 kmh W 4.3 mph6.9 kmh 29.50 in999.0 mb - 0.00 in0.0 mm 0.02 in0.5 mm
12:52 AM 40.3°F4.6°C 39.0°F3.9°C 95% 3.8 mph SW6.1 kmh SW 3.1 mph5.0 kmh 29.51 in999.3 mb - 0.00 in0.0 mm 0.02 in0.5 mm
12:47 AM 40.5°F4.7°C 39.2°F4.0°C 95% 4.3 mph WNW6.9 kmh WNW 6.3 mph10.1 kmh 29.50 in999.0 mb - 0.03 in0.8 mm 0.02 in0.5 mm
12:42 AM 40.6°F4.8°C 39.6°F4.2°C 96% 2.9 mph W4.7 kmh W 3.1 mph5.0 kmh 29.50 in999.0 mb - 0.03 in0.8 mm 0.02 in0.5 mm
12:37 AM 40.8°F4.9°C 39.7°F4.3°C 96% 2.7 mph WSW4.3 kmh WSW 3.1 mph5.0 kmh 29.50 in999.0 mb - 0.03 in0.8 mm 0.02 in0.5 mm
12:32 AM 41.2°F5.1°C 40.1°F4.5°C 96% 6.3 mph WNW10.1 kmh WNW 4.3 mph6.9 kmh 29.50 in999.0 mb - 0.03 in0.8 mm 0.01 in0.3 mm
12:27 AM 41.4°F5.2°C 40.3°F4.6°C 96% 5.4 mph WSW8.7 kmh WSW 4.3 mph6.9 kmh 29.50 in999.0 mb - 0.00 in0.0 mm 0.01 in0.3 mm
12:22 AM 41.4°F5.2°C 40.3°F4.6°C 96% 4.0 mph W6.4 kmh W 4.3 mph6.9 kmh 29.49 in998.6 mb - 0.00 in0.0 mm 0.01 in0.3 mm
12:17 AM 41.4°F5.2°C 40.3°F4.6°C 96% 6.0 mph WSW9.7 kmh WSW 6.3 mph10.1 kmh 29.49 in998.6 mb - 0.03 in0.8 mm 0.01 in0.3 mm
12:12 AM 41.2°F5.1°C 40.1°F4.5°C 96% 5.4 mph SW8.7 kmh SW 7.4 mph11.9 kmh 29.49 in998.6 mb - 0.03 in0.8 mm 0.01 in0.3 mm
12:07 AM 41.2°F5.1°C 40.1°F4.5°C 96% 6.0 mph 9.7 kmh 5.4 mph8.7 kmh 29.49 in998.6 mb - 0.03 in0.8 mm 0.01 in0.3 mm
12:02 AM 41.2°F5.1°C 40.1°F4.5°C 96% 5.6 mph WSW9.0 kmh WSW 6.3 mph10.1 kmh 29.49 in998.6 mb - 0.00 in0.0 mm 0.05 in1.3 mm